sensor_id;sensor_type;location;lat;lon;timestamp;P1;durP1;ratioP1;P2;durP2;ratioP2
74291;SDS011;62687;55.738;37.516;2022-10-16T00:00:52;8.02;;;3.75;;
74291;SDS011;62687;55.738;37.516;2022-10-16T00:03:37;10.80;;;4.05;;
74291;SDS011;62687;55.738;37.516;2022-10-16T00:06:22;7.18;;;3.58;;
74291;SDS011;62687;55.738;37.516;2022-10-16T00:09:07;8.30;;;3.28;;
74291;SDS011;62687;55.738;37.516;2022-10-16T00:11:52;6.18;;;3.40;;
74291;SDS011;62687;55.738;37.516;2022-10-16T00:14:36;10.68;;;3.42;;
74291;SDS011;62687;55.738;37.516;2022-10-16T00:17:20;7.82;;;3.60;;
74291;SDS011;62687;55.738;37.516;2022-10-16T00:20:04;9.50;;;3.28;;
74291;SDS011;62687;55.738;37.516;2022-10-16T00:22:49;7.97;;;3.35;;
74291;SDS011;62687;55.738;37.516;2022-10-16T00:25:33;8.02;;;3.25;;
74291;SDS011;62687;55.738;37.516;2022-10-16T00:28:17;8.77;;;3.40;;
74291;SDS011;62687;55.738;37.516;2022-10-16T00:31:05;9.48;;;3.75;;
74291;SDS011;62687;55.738;37.516;2022-10-16T00:33:50;7.18;;;3.78;;
74291;SDS011;62687;55.738;37.516;2022-10-16T00:36:35;9.23;;;4.00;;
74291;SDS011;62687;55.738;37.516;2022-10-16T00:39:19;9.77;;;4.53;;
74291;SDS011;62687;55.738;37.516;2022-10-16T00:42:03;6.10;;;3.42;;
74291;SDS011;62687;55.738;37.516;2022-10-16T00:47:36;10.30;;;3.80;;
74291;SDS011;62687;55.738;37.516;2022-10-16T00:50:28;8.38;;;4.05;;
74291;SDS011;62687;55.738;37.516;2022-10-16T00:53:16;6.97;;;3.50;;
74291;SDS011;62687;55.738;37.516;2022-10-16T00:56:00;9.73;;;3.45;;
74291;SDS011;62687;55.738;37.516;2022-10-16T00:58:46;10.18;;;3.80;;
74291;SDS011;62687;55.738;37.516;2022-10-16T01:01:30;5.70;;;3.20;;
74291;SDS011;62687;55.738;37.516;2022-10-16T01:04:14;8.30;;;3.35;;
74291;SDS011;62687;55.738;37.516;2022-10-16T01:07:04;8.13;;;3.63;;
74291;SDS011;62687;55.738;37.516;2022-10-16T01:10:06;10.63;;;3.92;;
74291;SDS011;62687;55.738;37.516;2022-10-16T01:18:44;9.57;;;3.55;;
74291;SDS011;62687;55.738;37.516;2022-10-16T01:21:42;8.80;;;3.80;;
74291;SDS011;62687;55.738;37.516;2022-10-16T01:24:31;12.73;;;3.97;;
74291;SDS011;62687;55.738;37.516;2022-10-16T01:27:25;7.65;;;3.80;;
74291;SDS011;62687;55.738;37.516;2022-10-16T01:30:18;8.73;;;3.45;;
74291;SDS011;62687;55.738;37.516;2022-10-16T01:33:10;6.75;;;3.58;;
74291;SDS011;62687;55.738;37.516;2022-10-16T01:36:07;8.32;;;3.42;;
74291;SDS011;62687;55.738;37.516;2022-10-16T01:38:59;7.18;;;3.30;;
74291;SDS011;62687;55.738;37.516;2022-10-16T01:41:46;7.80;;;3.70;;
74291;SDS011;62687;55.738;37.516;2022-10-16T01:44:39;7.10;;;3.53;;
74291;SDS011;62687;55.738;37.516;2022-10-16T01:47:26;7.70;;;2.83;;
74291;SDS011;62687;55.738;37.516;2022-10-16T01:50:11;6.47;;;3.22;;
74291;SDS011;62687;55.738;37.516;2022-10-16T01:52:57;6.70;;;3.60;;
74291;SDS011;62687;55.738;37.516;2022-10-16T01:55:44;12.20;;;3.95;;
74291;SDS011;62687;55.738;37.516;2022-10-16T01:58:33;6.05;;;3.50;;
74291;SDS011;62687;55.738;37.516;2022-10-16T02:01:22;7.18;;;3.53;;
74291;SDS011;62687;55.738;37.516;2022-10-16T02:04:15;8.75;;;3.97;;
74291;SDS011;62687;55.738;37.516;2022-10-16T02:07:02;5.72;;;3.10;;
74291;SDS011;62687;55.738;37.516;2022-10-16T02:09:47;7.55;;;3.28;;
74291;SDS011;62687;55.738;37.516;2022-10-16T02:12:32;6.57;;;3.22;;
74291;SDS011;62687;55.738;37.516;2022-10-16T02:15:20;8.73;;;3.10;;
74291;SDS011;62687;55.738;37.516;2022-10-16T02:18:04;5.13;;;3.17;;
74291;SDS011;62687;55.738;37.516;2022-10-16T02:26:34;8.75;;;3.05;;
74291;SDS011;62687;55.738;37.516;2022-10-16T02:29:27;9.55;;;3.70;;
74291;SDS011;62687;55.738;37.516;2022-10-16T02:32:12;7.40;;;3.17;;
74291;SDS011;62687;55.738;37.516;2022-10-16T02:34:59;8.52;;;4.28;;
74291;SDS011;62687;55.738;37.516;2022-10-16T02:37:45;6.55;;;3.03;;
74291;SDS011;62687;55.738;37.516;2022-10-16T02:43:14;7.03;;;3.50;;
74291;SDS011;62687;55.738;37.516;2022-10-16T02:45:59;8.52;;;3.63;;
74291;SDS011;62687;55.738;37.516;2022-10-16T02:48:43;9.52;;;3.60;;
74291;SDS011;62687;55.738;37.516;2022-10-16T02:51:28;9.25;;;3.65;;
74291;SDS011;62687;55.738;37.516;2022-10-16T02:54:12;10.07;;;3.50;;
74291;SDS011;62687;55.738;37.516;2022-10-16T02:56:56;10.88;;;3.95;;
74291;SDS011;62687;55.738;37.516;2022-10-16T02:59:41;5.93;;;3.25;;
74291;SDS011;62687;55.738;37.516;2022-10-16T03:02:25;6.00;;;3.40;;
74291;SDS011;62687;55.738;37.516;2022-10-16T03:05:09;8.73;;;3.60;;
74291;SDS011;62687;55.738;37.516;2022-10-16T03:07:54;7.32;;;3.78;;
74291;SDS011;62687;55.738;37.516;2022-10-16T03:10:38;8.75;;;4.00;;
74291;SDS011;62687;55.738;37.516;2022-10-16T03:13:22;9.32;;;3.38;;
74291;SDS011;62687;55.738;37.516;2022-10-16T03:16:06;7.05;;;3.40;;
74291;SDS011;62687;55.738;37.516;2022-10-16T03:18:50;6.40;;;3.28;;
74291;SDS011;62687;55.738;37.516;2022-10-16T03:21:35;10.27;;;3.90;;
74291;SDS011;62687;55.738;37.516;2022-10-16T03:24:19;5.55;;;3.20;;
74291;SDS011;62687;55.738;37.516;2022-10-16T03:27:03;8.43;;;3.53;;
74291;SDS011;62687;55.738;37.516;2022-10-16T03:29:47;6.45;;;3.38;;
74291;SDS011;62687;55.738;37.516;2022-10-16T03:32:31;12.20;;;5.10;;
74291;SDS011;62687;55.738;37.516;2022-10-16T03:35:15;9.95;;;3.42;;
74291;SDS011;62687;55.738;37.516;2022-10-16T03:38:00;5.38;;;3.10;;
74291;SDS011;62687;55.738;37.516;2022-10-16T03:40:44;9.15;;;3.20;;
74291;SDS011;62687;55.738;37.516;2022-10-16T03:43:28;6.85;;;3.50;;
74291;SDS011;62687;55.738;37.516;2022-10-16T03:46:12;7.07;;;3.20;;
74291;SDS011;62687;55.738;37.516;2022-10-16T03:48:56;6.32;;;3.20;;
74291;SDS011;62687;55.738;37.516;2022-10-16T03:51:40;9.82;;;3.10;;
74291;SDS011;62687;55.738;37.516;2022-10-16T03:54:25;5.43;;;3.30;;
74291;SDS011;62687;55.738;37.516;2022-10-16T03:57:09;7.53;;;3.40;;
74291;SDS011;62687;55.738;37.516;2022-10-16T03:59:53;6.95;;;3.17;;
74291;SDS011;62687;55.738;37.516;2022-10-16T04:02:37;6.68;;;3.80;;
74291;SDS011;62687;55.738;37.516;2022-10-16T04:05:22;7.25;;;3.30;;
74291;SDS011;62687;55.738;37.516;2022-10-16T04:08:06;9.27;;;3.70;;
74291;SDS011;62687;55.738;37.516;2022-10-16T04:10:50;7.50;;;3.80;;
74291;SDS011;62687;55.738;37.516;2022-10-16T04:13:35;9.90;;;3.60;;
74291;SDS011;62687;55.738;37.516;2022-10-16T04:16:19;12.43;;;3.78;;
74291;SDS011;62687;55.738;37.516;2022-10-16T04:19:03;6.47;;;3.47;;
74291;SDS011;62687;55.738;37.516;2022-10-16T04:21:47;7.60;;;3.50;;
74291;SDS011;62687;55.738;37.516;2022-10-16T04:24:31;8.55;;;3.55;;
74291;SDS011;62687;55.738;37.516;2022-10-16T04:27:15;8.23;;;3.78;;
74291;SDS011;62687;55.738;37.516;2022-10-16T04:29:59;7.28;;;3.30;;
74291;SDS011;62687;55.738;37.516;2022-10-16T04:32:47;7.18;;;3.15;;
74291;SDS011;62687;55.738;37.516;2022-10-16T04:35:33;7.55;;;3.83;;
74291;SDS011;62687;55.738;37.516;2022-10-16T04:38:17;9.48;;;3.58;;
74291;SDS011;62687;55.738;37.516;2022-10-16T04:41:01;6.13;;;3.40;;
74291;SDS011;62687;55.738;37.516;2022-10-16T04:43:45;7.35;;;3.45;;
74291;SDS011;62687;55.738;37.516;2022-10-16T04:46:29;6.70;;;3.47;;
74291;SDS011;62687;55.738;37.516;2022-10-16T04:49:13;7.82;;;3.30;;
74291;SDS011;62687;55.738;37.516;2022-10-16T04:51:57;5.93;;;3.60;;
74291;SDS011;62687;55.738;37.516;2022-10-16T04:54:42;7.82;;;3.05;;
74291;SDS011;62687;55.738;37.516;2022-10-16T04:57:29;8.95;;;4.38;;
74291;SDS011;62687;55.738;37.516;2022-10-16T05:00:13;7.82;;;3.60;;
74291;SDS011;62687;55.738;37.516;2022-10-16T05:02:58;10.65;;;3.55;;
74291;SDS011;62687;55.738;37.516;2022-10-16T05:05:44;7.85;;;3.22;;
74291;SDS011;62687;55.738;37.516;2022-10-16T05:08:29;8.40;;;3.75;;
74291;SDS011;62687;55.738;37.516;2022-10-16T05:11:14;10.63;;;3.75;;
74291;SDS011;62687;55.738;37.516;2022-10-16T05:13:58;8.63;;;3.33;;
74291;SDS011;62687;55.738;37.516;2022-10-16T05:16:42;8.32;;;3.28;;
74291;SDS011;62687;55.738;37.516;2022-10-16T05:19:26;6.40;;;3.42;;
74291;SDS011;62687;55.738;37.516;2022-10-16T05:22:10;6.82;;;3.55;;
74291;SDS011;62687;55.738;37.516;2022-10-16T05:24:55;7.25;;;3.67;;
74291;SDS011;62687;55.738;37.516;2022-10-16T05:27:39;8.15;;;3.00;;
74291;SDS011;62687;55.738;37.516;2022-10-16T05:30:23;7.75;;;3.70;;
74291;SDS011;62687;55.738;37.516;2022-10-16T05:33:07;9.90;;;3.75;;
74291;SDS011;62687;55.738;37.516;2022-10-16T05:35:51;9.95;;;3.53;;
74291;SDS011;62687;55.738;37.516;2022-10-16T05:38:36;7.72;;;3.80;;
74291;SDS011;62687;55.738;37.516;2022-10-16T05:44:05;11.02;;;3.97;;
74291;SDS011;62687;55.738;37.516;2022-10-16T05:46:50;8.57;;;3.90;;
74291;SDS011;62687;55.738;37.516;2022-10-16T05:49:34;6.97;;;3.53;;
74291;SDS011;62687;55.738;37.516;2022-10-16T05:52:18;9.50;;;4.07;;
74291;SDS011;62687;55.738;37.516;2022-10-16T05:55:02;10.45;;;3.83;;
74291;SDS011;62687;55.738;37.516;2022-10-16T05:57:47;13.52;;;4.28;;
74291;SDS011;62687;55.738;37.516;2022-10-16T06:00:31;11.32;;;3.80;;
74291;SDS011;62687;55.738;37.516;2022-10-16T06:03:15;11.27;;;4.22;;
74291;SDS011;62687;55.738;37.516;2022-10-16T06:06:08;11.05;;;3.83;;
74291;SDS011;62687;55.738;37.516;2022-10-16T06:08:54;10.73;;;4.28;;
74291;SDS011;62687;55.738;37.516;2022-10-16T06:11:39;8.52;;;4.30;;
74291;SDS011;62687;55.738;37.516;2022-10-16T06:14:23;10.35;;;4.55;;
74291;SDS011;62687;55.738;37.516;2022-10-16T06:17:08;15.00;;;4.55;;
74291;SDS011;62687;55.738;37.516;2022-10-16T06:19:52;8.82;;;4.20;;
74291;SDS011;62687;55.738;37.516;2022-10-16T06:22:36;14.05;;;5.25;;
74291;SDS011;62687;55.738;37.516;2022-10-16T06:25:21;11.05;;;4.75;;
74291;SDS011;62687;55.738;37.516;2022-10-16T06:28:05;11.13;;;4.57;;
74291;SDS011;62687;55.738;37.516;2022-10-16T06:30:49;10.77;;;5.00;;
74291;SDS011;62687;55.738;37.516;2022-10-16T06:33:42;10.80;;;4.80;;
74291;SDS011;62687;55.738;37.516;2022-10-16T06:36:29;11.98;;;4.55;;
74291;SDS011;62687;55.738;37.516;2022-10-16T06:39:13;11.55;;;4.28;;
74291;SDS011;62687;55.738;37.516;2022-10-16T06:41:57;8.35;;;4.28;;
74291;SDS011;62687;55.738;37.516;2022-10-16T06:44:41;16.48;;;5.53;;
74291;SDS011;62687;55.738;37.516;2022-10-16T06:47:26;17.15;;;5.57;;
74291;SDS011;62687;55.738;37.516;2022-10-16T06:50:11;14.65;;;4.80;;
74291;SDS011;62687;55.738;37.516;2022-10-16T06:52:55;16.77;;;5.15;;
74291;SDS011;62687;55.738;37.516;2022-10-16T06:55:39;10.70;;;4.68;;
74291;SDS011;62687;55.738;37.516;2022-10-16T06:58:24;15.10;;;4.70;;
74291;SDS011;62687;55.738;37.516;2022-10-16T07:01:09;12.02;;;4.95;;
74291;SDS011;62687;55.738;37.516;2022-10-16T07:06:38;15.73;;;5.60;;
74291;SDS011;62687;55.738;37.516;2022-10-16T07:09:22;10.45;;;4.60;;
74291;SDS011;62687;55.738;37.516;2022-10-16T07:12:06;15.50;;;5.00;;
74291;SDS011;62687;55.738;37.516;2022-10-16T07:14:50;11.25;;;4.68;;
74291;SDS011;62687;55.738;37.516;2022-10-16T07:17:36;16.13;;;5.18;;
74291;SDS011;62687;55.738;37.516;2022-10-16T07:20:20;13.52;;;5.07;;
74291;SDS011;62687;55.738;37.516;2022-10-16T07:23:04;13.35;;;4.93;;
74291;SDS011;62687;55.738;37.516;2022-10-16T07:25:53;14.88;;;4.35;;
74291;SDS011;62687;55.738;37.516;2022-10-16T07:28:38;14.48;;;4.70;;
74291;SDS011;62687;55.738;37.516;2022-10-16T07:34:07;16.85;;;4.95;;
74291;SDS011;62687;55.738;37.516;2022-10-16T07:36:51;12.30;;;4.70;;
74291;SDS011;62687;55.738;37.516;2022-10-16T07:39:35;12.45;;;4.60;;
74291;SDS011;62687;55.738;37.516;2022-10-16T07:42:20;17.77;;;4.82;;
74291;SDS011;62687;55.738;37.516;2022-10-16T07:45:04;14.10;;;5.10;;
74291;SDS011;62687;55.738;37.516;2022-10-16T07:47:49;13.63;;;5.43;;
74291;SDS011;62687;55.738;37.516;2022-10-16T07:50:33;10.65;;;4.97;;
74291;SDS011;62687;55.738;37.516;2022-10-16T07:53:17;10.82;;;4.18;;
74291;SDS011;62687;55.738;37.516;2022-10-16T07:56:02;12.18;;;4.88;;
74291;SDS011;62687;55.738;37.516;2022-10-16T07:58:49;11.48;;;4.70;;
74291;SDS011;62687;55.738;37.516;2022-10-16T08:01:34;12.88;;;4.53;;
74291;SDS011;62687;55.738;37.516;2022-10-16T08:04:18;11.65;;;5.07;;
74291;SDS011;62687;55.738;37.516;2022-10-16T08:07:02;10.02;;;4.50;;
74291;SDS011;62687;55.738;37.516;2022-10-16T08:09:48;11.30;;;4.47;;
74291;SDS011;62687;55.738;37.516;2022-10-16T08:12:35;11.63;;;4.15;;
74291;SDS011;62687;55.738;37.516;2022-10-16T08:15:19;12.98;;;4.28;;
74291;SDS011;62687;55.738;37.516;2022-10-16T08:20:54;9.95;;;4.25;;
74291;SDS011;62687;55.738;37.516;2022-10-16T08:23:39;10.85;;;4.13;;
74291;SDS011;62687;55.738;37.516;2022-10-16T08:26:23;10.40;;;4.13;;
74291;SDS011;62687;55.738;37.516;2022-10-16T08:29:09;8.40;;;3.35;;
74291;SDS011;62687;55.738;37.516;2022-10-16T08:31:53;10.20;;;3.80;;
74291;SDS011;62687;55.738;37.516;2022-10-16T08:34:37;12.40;;;4.00;;
74291;SDS011;62687;55.738;37.516;2022-10-16T08:37:21;6.93;;;3.28;;
74291;SDS011;62687;55.738;37.516;2022-10-16T08:40:06;11.50;;;3.97;;
74291;SDS011;62687;55.738;37.516;2022-10-16T08:46:06;12.70;;;3.88;;
74291;SDS011;62687;55.738;37.516;2022-10-16T08:49:11;17.95;;;4.45;;
74291;SDS011;62687;55.738;37.516;2022-10-16T08:52:00;10.82;;;3.42;;
74291;SDS011;62687;55.738;37.516;2022-10-16T08:54:45;13.45;;;3.65;;
74291;SDS011;62687;55.738;37.516;2022-10-16T08:57:33;15.15;;;3.53;;
74291;SDS011;62687;55.738;37.516;2022-10-16T09:00:18;11.73;;;3.15;;
74291;SDS011;62687;55.738;37.516;2022-10-16T09:06:17;13.05;;;3.05;;
74291;SDS011;62687;55.738;37.516;2022-10-16T09:09:09;6.18;;;2.85;;
74291;SDS011;62687;55.738;37.516;2022-10-16T09:12:19;15.70;;;3.47;;
74291;SDS011;62687;55.738;37.516;2022-10-16T09:15:13;7.88;;;2.60;;
74291;SDS011;62687;55.738;37.516;2022-10-16T09:21:04;5.15;;;2.70;;
74291;SDS011;62687;55.738;37.516;2022-10-16T09:24:16;6.75;;;2.88;;
74291;SDS011;62687;55.738;37.516;2022-10-16T09:27:02;8.75;;;3.22;;
74291;SDS011;62687;55.738;37.516;2022-10-16T09:29:46;8.77;;;2.90;;
74291;SDS011;62687;55.738;37.516;2022-10-16T09:32:30;6.10;;;2.40;;
74291;SDS011;62687;55.738;37.516;2022-10-16T09:35:18;11.27;;;2.88;;
74291;SDS011;62687;55.738;37.516;2022-10-16T09:38:04;8.80;;;2.65;;
74291;SDS011;62687;55.738;37.516;2022-10-16T09:40:49;10.57;;;2.83;;
74291;SDS011;62687;55.738;37.516;2022-10-16T09:43:35;5.47;;;2.42;;
74291;SDS011;62687;55.738;37.516;2022-10-16T09:49:21;8.10;;;2.55;;
74291;SDS011;62687;55.738;37.516;2022-10-16T09:52:14;7.72;;;2.60;;
74291;SDS011;62687;55.738;37.516;2022-10-16T09:54:59;13.02;;;2.88;;
74291;SDS011;62687;55.738;37.516;2022-10-16T09:57:51;10.75;;;2.65;;
74291;SDS011;62687;55.738;37.516;2022-10-16T10:00:37;8.48;;;2.63;;
74291;SDS011;62687;55.738;37.516;2022-10-16T10:03:36;6.07;;;2.88;;
74291;SDS011;62687;55.738;37.516;2022-10-16T10:12:29;6.45;;;2.17;;
74291;SDS011;62687;55.738;37.516;2022-10-16T10:15:18;9.95;;;2.60;;
74291;SDS011;62687;55.738;37.516;2022-10-16T10:18:15;9.35;;;2.55;;
74291;SDS011;62687;55.738;37.516;2022-10-16T10:21:03;8.48;;;2.67;;
74291;SDS011;62687;55.738;37.516;2022-10-16T10:23:55;7.40;;;2.67;;
74291;SDS011;62687;55.738;37.516;2022-10-16T10:27:04;9.02;;;3.13;;
74291;SDS011;62687;55.738;37.516;2022-10-16T10:30:02;5.47;;;2.40;;
74291;SDS011;62687;55.738;37.516;2022-10-16T10:39:25;9.10;;;2.45;;
74291;SDS011;62687;55.738;37.516;2022-10-16T10:42:27;3.70;;;2.45;;
74291;SDS011;62687;55.738;37.516;2022-10-16T10:45:27;9.48;;;2.28;;
74291;SDS011;62687;55.738;37.516;2022-10-16T10:54:26;6.00;;;2.58;;
74291;SDS011;62687;55.738;37.516;2022-10-16T10:57:29;13.35;;;2.85;;
74291;SDS011;62687;55.738;37.516;2022-10-16T11:03:26;7.35;;;2.90;;
74291;SDS011;62687;55.738;37.516;2022-10-16T11:06:33;4.90;;;2.50;;
74291;SDS011;62687;55.738;37.516;2022-10-16T11:09:24;7.43;;;2.65;;
74291;SDS011;62687;55.738;37.516;2022-10-16T11:12:17;7.20;;;2.63;;
74291;SDS011;62687;55.738;37.516;2022-10-16T11:15:14;5.65;;;2.75;;
74291;SDS011;62687;55.738;37.516;2022-10-16T11:18:07;6.43;;;2.30;;
74291;SDS011;62687;55.738;37.516;2022-10-16T11:21:01;8.90;;;2.85;;
74291;SDS011;62687;55.738;37.516;2022-10-16T11:24:16;10.25;;;2.65;;
74291;SDS011;62687;55.738;37.516;2022-10-16T11:27:01;5.45;;;2.72;;
74291;SDS011;62687;55.738;37.516;2022-10-16T11:35:52;6.28;;;2.60;;
74291;SDS011;62687;55.738;37.516;2022-10-16T11:41:51;9.10;;;2.60;;
74291;SDS011;62687;55.738;37.516;2022-10-16T11:44:42;7.32;;;2.90;;
74291;SDS011;62687;55.738;37.516;2022-10-16T11:47:48;6.45;;;2.90;;
74291;SDS011;62687;55.738;37.516;2022-10-16T11:50:43;12.45;;;3.00;;
74291;SDS011;62687;55.738;37.516;2022-10-16T11:56:53;10.25;;;2.47;;
74291;SDS011;62687;55.738;37.516;2022-10-16T12:06:06;4.10;;;2.28;;
74291;SDS011;62687;55.738;37.516;2022-10-16T12:09:13;8.85;;;2.78;;
74291;SDS011;62687;55.738;37.516;2022-10-16T12:12:04;6.95;;;2.85;;
74291;SDS011;62687;55.738;37.516;2022-10-16T12:14:58;5.45;;;2.80;;
74291;SDS011;62687;55.738;37.516;2022-10-16T12:17:45;5.55;;;2.53;;
74291;SDS011;62687;55.738;37.516;2022-10-16T12:20:30;15.35;;;3.45;;
74291;SDS011;62687;55.738;37.516;2022-10-16T12:23:19;5.22;;;2.60;;
74291;SDS011;62687;55.738;37.516;2022-10-16T12:26:08;5.25;;;2.40;;
74291;SDS011;62687;55.738;37.516;2022-10-16T12:28:54;9.40;;;3.28;;
74291;SDS011;62687;55.738;37.516;2022-10-16T12:31:43;6.15;;;2.80;;
74291;SDS011;62687;55.738;37.516;2022-10-16T12:34:31;7.35;;;3.00;;
74291;SDS011;62687;55.738;37.516;2022-10-16T12:37:31;5.35;;;2.67;;
74291;SDS011;62687;55.738;37.516;2022-10-16T12:43:12;7.72;;;3.17;;
74291;SDS011;62687;55.738;37.516;2022-10-16T12:55:34;8.85;;;2.65;;
74291;SDS011;62687;55.738;37.516;2022-10-16T13:04:38;9.23;;;3.03;;
74291;SDS011;62687;55.738;37.516;2022-10-16T13:14:13;6.47;;;2.58;;
74291;SDS011;62687;55.738;37.516;2022-10-16T13:19:53;10.63;;;2.50;;
74291;SDS011;62687;55.738;37.516;2022-10-16T13:28:53;9.77;;;3.05;;
74291;SDS011;62687;55.738;37.516;2022-10-16T13:31:37;10.27;;;2.85;;
74291;SDS011;62687;55.738;37.516;2022-10-16T13:34:22;11.48;;;3.13;;
74291;SDS011;62687;55.738;37.516;2022-10-16T13:37:20;6.05;;;2.53;;
74291;SDS011;62687;55.738;37.516;2022-10-16T13:40:12;6.18;;;2.85;;
74291;SDS011;62687;55.738;37.516;2022-10-16T13:43:03;15.82;;;3.63;;
74291;SDS011;62687;55.738;37.516;2022-10-16T13:45:54;10.25;;;3.50;;
74291;SDS011;62687;55.738;37.516;2022-10-16T13:48:39;6.93;;;3.00;;
74291;SDS011;62687;55.738;37.516;2022-10-16T13:51:24;9.20;;;3.20;;
74291;SDS011;62687;55.738;37.516;2022-10-16T13:54:09;12.02;;;3.42;;
74291;SDS011;62687;55.738;37.516;2022-10-16T13:56:55;7.15;;;2.95;;
74291;SDS011;62687;55.738;37.516;2022-10-16T13:59:39;8.93;;;3.20;;
74291;SDS011;62687;55.738;37.516;2022-10-16T14:02:29;6.70;;;2.90;;
74291;SDS011;62687;55.738;37.516;2022-10-16T14:05:22;7.57;;;3.00;;
74291;SDS011;62687;55.738;37.516;2022-10-16T14:08:09;7.10;;;3.70;;
74291;SDS011;62687;55.738;37.516;2022-10-16T14:10:55;12.45;;;3.10;;
74291;SDS011;62687;55.738;37.516;2022-10-16T14:13:44;6.88;;;2.90;;
74291;SDS011;62687;55.738;37.516;2022-10-16T14:16:30;10.82;;;3.10;;
74291;SDS011;62687;55.738;37.516;2022-10-16T14:19:22;8.98;;;3.13;;
74291;SDS011;62687;55.738;37.516;2022-10-16T14:34:03;9.50;;;3.47;;
74291;SDS011;62687;55.738;37.516;2022-10-16T14:36:48;10.90;;;3.25;;
74291;SDS011;62687;55.738;37.516;2022-10-16T14:39:32;17.15;;;4.00;;
74291;SDS011;62687;55.738;37.516;2022-10-16T14:42:18;17.10;;;3.90;;
74291;SDS011;62687;55.738;37.516;2022-10-16T14:45:07;12.02;;;3.75;;
74291;SDS011;62687;55.738;37.516;2022-10-16T14:47:58;13.25;;;4.25;;
74291;SDS011;62687;55.738;37.516;2022-10-16T14:50:48;9.02;;;3.58;;
74291;SDS011;62687;55.738;37.516;2022-10-16T14:53:32;10.45;;;3.50;;
74291;SDS011;62687;55.738;37.516;2022-10-16T14:56:18;11.45;;;3.75;;
74291;SDS011;62687;55.738;37.516;2022-10-16T14:59:04;9.43;;;3.55;;
74291;SDS011;62687;55.738;37.516;2022-10-16T15:01:48;8.35;;;2.85;;
74291;SDS011;62687;55.738;37.516;2022-10-16T15:04:33;13.02;;;3.35;;
74291;SDS011;62687;55.738;37.516;2022-10-16T15:07:17;8.13;;;4.03;;
74291;SDS011;62687;55.738;37.516;2022-10-16T15:10:01;11.93;;;3.35;;
74291;SDS011;62687;55.738;37.516;2022-10-16T15:12:46;10.45;;;3.63;;
74291;SDS011;62687;55.738;37.516;2022-10-16T15:15:42;8.90;;;3.75;;
74291;SDS011;62687;55.738;37.516;2022-10-16T15:18:28;7.32;;;3.90;;
74291;SDS011;62687;55.738;37.516;2022-10-16T15:21:28;9.23;;;3.40;;
74291;SDS011;62687;55.738;37.516;2022-10-16T15:24:14;7.75;;;4.20;;
74291;SDS011;62687;55.738;37.516;2022-10-16T15:26:59;10.30;;;4.05;;
74291;SDS011;62687;55.738;37.516;2022-10-16T15:29:43;12.07;;;4.55;;
74291;SDS011;62687;55.738;37.516;2022-10-16T15:32:27;8.40;;;4.25;;
74291;SDS011;62687;55.738;37.516;2022-10-16T15:35:11;7.03;;;3.83;;
74291;SDS011;62687;55.738;37.516;2022-10-16T15:37:55;11.15;;;4.28;;
74291;SDS011;62687;55.738;37.516;2022-10-16T15:40:40;9.10;;;4.90;;
74291;SDS011;62687;55.738;37.516;2022-10-16T15:43:25;9.85;;;4.22;;
74291;SDS011;62687;55.738;37.516;2022-10-16T15:46:11;7.45;;;3.92;;
74291;SDS011;62687;55.738;37.516;2022-10-16T15:48:58;11.75;;;3.50;;
74291;SDS011;62687;55.738;37.516;2022-10-16T15:51:42;11.10;;;3.47;;
74291;SDS011;62687;55.738;37.516;2022-10-16T15:54:26;12.27;;;4.03;;
74291;SDS011;62687;55.738;37.516;2022-10-16T15:57:10;10.10;;;3.30;;
74291;SDS011;62687;55.738;37.516;2022-10-16T15:59:55;8.85;;;3.50;;
74291;SDS011;62687;55.738;37.516;2022-10-16T16:02:40;10.20;;;3.50;;
74291;SDS011;62687;55.738;37.516;2022-10-16T16:05:24;8.10;;;4.00;;
74291;SDS011;62687;55.738;37.516;2022-10-16T16:08:09;9.90;;;3.40;;
74291;SDS011;62687;55.738;37.516;2022-10-16T16:10:58;8.18;;;3.50;;
74291;SDS011;62687;55.738;37.516;2022-10-16T16:13:47;7.32;;;3.25;;
74291;SDS011;62687;55.738;37.516;2022-10-16T16:16:31;14.00;;;3.65;;
74291;SDS011;62687;55.738;37.516;2022-10-16T16:19:20;7.03;;;3.03;;
74291;SDS011;62687;55.738;37.516;2022-10-16T16:22:06;13.30;;;3.47;;
74291;SDS011;62687;55.738;37.516;2022-10-16T16:24:50;8.23;;;3.50;;
74291;SDS011;62687;55.738;37.516;2022-10-16T16:27:36;5.65;;;2.97;;
74291;SDS011;62687;55.738;37.516;2022-10-16T16:30:21;8.32;;;3.53;;
74291;SDS011;62687;55.738;37.516;2022-10-16T16:33:05;7.70;;;2.88;;
74291;SDS011;62687;55.738;37.516;2022-10-16T16:35:50;6.95;;;3.00;;
74291;SDS011;62687;55.738;37.516;2022-10-16T16:38:34;7.50;;;3.35;;
74291;SDS011;62687;55.738;37.516;2022-10-16T16:41:19;8.05;;;3.20;;
74291;SDS011;62687;55.738;37.516;2022-10-16T16:44:07;7.57;;;3.33;;
74291;SDS011;62687;55.738;37.516;2022-10-16T16:46:54;7.93;;;3.30;;
74291;SDS011;62687;55.738;37.516;2022-10-16T16:49:38;10.15;;;3.35;;
74291;SDS011;62687;55.738;37.516;2022-10-16T16:55:09;9.30;;;3.63;;
74291;SDS011;62687;55.738;37.516;2022-10-16T16:57:53;9.95;;;3.38;;
74291;SDS011;62687;55.738;37.516;2022-10-16T17:00:44;6.00;;;3.28;;
74291;SDS011;62687;55.738;37.516;2022-10-16T17:06:14;5.63;;;3.17;;
74291;SDS011;62687;55.738;37.516;2022-10-16T17:08:58;10.15;;;3.55;;
74291;SDS011;62687;55.738;37.516;2022-10-16T17:11:44;6.72;;;3.75;;
74291;SDS011;62687;55.738;37.516;2022-10-16T17:14:29;6.85;;;3.45;;
74291;SDS011;62687;55.738;37.516;2022-10-16T17:17:13;9.18;;;3.67;;
74291;SDS011;62687;55.738;37.516;2022-10-16T17:19:57;8.15;;;3.33;;
74291;SDS011;62687;55.738;37.516;2022-10-16T17:22:42;6.05;;;2.88;;
74291;SDS011;62687;55.738;37.516;2022-10-16T17:25:26;7.32;;;3.50;;
74291;SDS011;62687;55.738;37.516;2022-10-16T17:28:10;8.40;;;3.90;;
74291;SDS011;62687;55.738;37.516;2022-10-16T17:30:55;10.27;;;3.53;;
74291;SDS011;62687;55.738;37.516;2022-10-16T17:33:40;8.50;;;3.65;;
74291;SDS011;62687;55.738;37.516;2022-10-16T17:36:25;8.50;;;3.40;;
74291;SDS011;62687;55.738;37.516;2022-10-16T17:39:13;8.55;;;3.50;;
74291;SDS011;62687;55.738;37.516;2022-10-16T17:42:02;6.45;;;3.20;;
74291;SDS011;62687;55.738;37.516;2022-10-16T17:44:46;8.65;;;4.20;;
74291;SDS011;62687;55.738;37.516;2022-10-16T17:47:30;9.15;;;4.00;;
74291;SDS011;62687;55.738;37.516;2022-10-16T17:50:16;11.50;;;3.65;;
74291;SDS011;62687;55.738;37.516;2022-10-16T17:53:00;9.18;;;3.95;;
74291;SDS011;62687;55.738;37.516;2022-10-16T17:55:44;9.20;;;3.70;;
74291;SDS011;62687;55.738;37.516;2022-10-16T17:58:28;8.05;;;3.60;;
74291;SDS011;62687;55.738;37.516;2022-10-16T18:01:13;11.18;;;3.40;;
74291;SDS011;62687;55.738;37.516;2022-10-16T18:04:06;9.00;;;3.40;;
74291;SDS011;62687;55.738;37.516;2022-10-16T18:06:52;12.65;;;4.38;;
74291;SDS011;62687;55.738;37.516;2022-10-16T18:09:38;8.82;;;3.45;;
74291;SDS011;62687;55.738;37.516;2022-10-16T18:12:22;7.10;;;3.47;;
74291;SDS011;62687;55.738;37.516;2022-10-16T18:15:06;7.22;;;3.28;;
74291;SDS011;62687;55.738;37.516;2022-10-16T18:17:51;9.27;;;3.28;;
74291;SDS011;62687;55.738;37.516;2022-10-16T18:20:35;9.63;;;3.53;;
74291;SDS011;62687;55.738;37.516;2022-10-16T18:23:20;8.07;;;3.58;;
74291;SDS011;62687;55.738;37.516;2022-10-16T18:26:05;6.00;;;3.83;;
74291;SDS011;62687;55.738;37.516;2022-10-16T18:28:51;7.28;;;3.47;;
74291;SDS011;62687;55.738;37.516;2022-10-16T18:31:36;8.77;;;4.07;;
74291;SDS011;62687;55.738;37.516;2022-10-16T18:34:21;7.63;;;3.58;;
74291;SDS011;62687;55.738;37.516;2022-10-16T18:37:06;9.25;;;3.00;;
74291;SDS011;62687;55.738;37.516;2022-10-16T18:39:50;8.15;;;3.30;;